sensor_id;sensor_type;location;lat;lon;timestamp;pressure;altitude;pressure_sealevel;temperature;humidity
19748;BME280;10032;51.386;12.516;2022-09-03T00:00:26;100314.38;;;16.86;92.39
19748;BME280;10032;51.386;12.516;2022-09-03T00:02:30;100318.25;;;16.80;92.33
19748;BME280;10032;51.386;12.516;2022-09-03T00:08:29;100305.72;;;16.74;93.25
19748;BME280;10032;51.386;12.516;2022-09-03T00:10:58;100303.31;;;16.68;93.58
19748;BME280;10032;51.386;12.516;2022-09-03T00:13:43;100308.47;;;16.69;93.72
19748;BME280;10032;51.386;12.516;2022-09-03T00:16:12;100299.75;;;16.67;93.93
19748;BME280;10032;51.386;12.516;2022-09-03T00:18:44;100292.94;;;16.65;94.06
19748;BME280;10032;51.386;12.516;2022-09-03T00:21:17;100302.28;;;16.59;94.61
19748;BME280;10032;51.386;12.516;2022-09-03T00:23:47;100299.34;;;16.50;95.10
19748;BME280;10032;51.386;12.516;2022-09-03T00:28:46;100291.72;;;16.37;96.37
19748;BME280;10032;51.386;12.516;2022-09-03T00:31:19;100303.81;;;16.31;96.63
19748;BME280;10032;51.386;12.516;2022-09-03T00:33:49;100292.63;;;16.28;96.95
19748;BME280;10032;51.386;12.516;2022-09-03T00:36:39;100300.63;;;16.19;97.66
19748;BME280;10032;51.386;12.516;2022-09-03T00:39:13;100298.69;;;16.20;97.86
19748;BME280;10032;51.386;12.516;2022-09-03T00:45:01;100303.91;;;16.11;99.74
19748;BME280;10032;51.386;12.516;2022-09-03T00:53:49;100304.56;;;15.98;100.00
19748;BME280;10032;51.386;12.516;2022-09-03T00:57:10;100301.25;;;15.96;100.00
19748;BME280;10032;51.386;12.516;2022-09-03T00:59:36;100302.94;;;15.97;100.00
19748;BME280;10032;51.386;12.516;2022-09-03T01:02:24;100303.19;;;15.96;100.00
19748;BME280;10032;51.386;12.516;2022-09-03T01:05:03;100305.66;;;15.97;100.00
19748;BME280;10032;51.386;12.516;2022-09-03T01:13:19;100296.13;;;15.90;100.00
19748;BME280;10032;51.386;12.516;2022-09-03T01:23:54;100297.25;;;15.84;100.00
19748;BME280;10032;51.386;12.516;2022-09-03T01:26:28;100298.06;;;15.84;100.00
19748;BME280;10032;51.386;12.516;2022-09-03T01:31:31;100305.44;;;15.84;100.00
19748;BME280;10032;51.386;12.516;2022-09-03T01:37:13;100298.06;;;15.84;100.00
19748;BME280;10032;51.386;12.516;2022-09-03T01:40:01;100304.09;;;15.81;100.00
19748;BME280;10032;51.386;12.516;2022-09-03T01:48:07;100299.78;;;15.65;100.00
19748;BME280;10032;51.386;12.516;2022-09-03T01:50:45;100302.78;;;15.69;100.00
19748;BME280;10032;51.386;12.516;2022-09-03T01:53:24;100297.03;;;15.70;100.00
19748;BME280;10032;51.386;12.516;2022-09-03T01:58:38;100289.94;;;15.64;100.00
19748;BME280;10032;51.386;12.516;2022-09-03T02:01:13;100296.50;;;15.63;100.00
19748;BME280;10032;51.386;12.516;2022-09-03T02:03:42;100302.22;;;15.67;100.00
19748;BME280;10032;51.386;12.516;2022-09-03T02:06:10;100302.22;;;15.62;100.00
19748;BME280;10032;51.386;12.516;2022-09-03T02:08:36;100305.78;;;15.62;100.00
19748;BME280;10032;51.386;12.516;2022-09-03T02:11:04;100306.94;;;15.51;100.00
19748;BME280;10032;51.386;12.516;2022-09-03T02:13:35;100308.28;;;15.54;100.00
19748;BME280;10032;51.386;12.516;2022-09-03T02:16:15;100303.38;;;15.51;100.00
19748;BME280;10032;51.386;12.516;2022-09-03T02:18:44;100301.75;;;15.45;100.00
19748;BME280;10032;51.386;12.516;2022-09-03T02:21:12;100304.22;;;15.46;100.00
19748;BME280;10032;51.386;12.516;2022-09-03T02:23:39;100303.69;;;15.44;100.00
19748;BME280;10032;51.386;12.516;2022-09-03T02:26:09;100300.41;;;15.37;100.00
19748;BME280;10032;51.386;12.516;2022-09-03T02:28:36;100298.25;;;15.34;100.00
19748;BME280;10032;51.386;12.516;2022-09-03T02:31:02;100302.34;;;15.37;100.00
19748;BME280;10032;51.386;12.516;2022-09-03T02:33:29;100305.34;;;15.35;100.00
19748;BME280;10032;51.386;12.516;2022-09-03T02:35:54;100304.50;;;15.25;100.00
19748;BME280;10032;51.386;12.516;2022-09-03T02:38:23;100302.06;;;15.23;100.00
19748;BME280;10032;51.386;12.516;2022-09-03T02:40:52;100302.06;;;15.23;100.00
19748;BME280;10032;51.386;12.516;2022-09-03T02:43:29;100308.91;;;15.16;100.00
19748;BME280;10032;51.386;12.516;2022-09-03T02:46:03;100301.25;;;15.13;100.00
19748;BME280;10032;51.386;12.516;2022-09-03T02:48:29;100302.63;;;15.10;100.00
19748;BME280;10032;51.386;12.516;2022-09-03T02:50:54;100311.91;;;15.04;100.00
19748;BME280;10032;51.386;12.516;2022-09-03T02:53:20;100303.72;;;14.99;100.00
19748;BME280;10032;51.386;12.516;2022-09-03T02:55:45;100301.56;;;14.91;100.00
19748;BME280;10032;51.386;12.516;2022-09-03T02:58:11;100299.09;;;14.85;100.00
19748;BME280;10032;51.386;12.516;2022-09-03T03:00:37;100300.47;;;14.82;100.00
19748;BME280;10032;51.386;12.516;2022-09-03T03:03:03;100300.47;;;14.77;100.00
19748;BME280;10032;51.386;12.516;2022-09-03T03:05:40;100297.47;;;14.74;100.00
19748;BME280;10032;51.386;12.516;2022-09-03T03:08:06;100296.38;;;14.70;100.00
19748;BME280;10032;51.386;12.516;2022-09-03T03:10:33;100297.19;;;14.65;100.00
19748;BME280;10032;51.386;12.516;2022-09-03T03:12:59;100298.56;;;14.63;100.00
19748;BME280;10032;51.386;12.516;2022-09-03T03:15:25;100295.56;;;14.59;100.00
19748;BME280;10032;51.386;12.516;2022-09-03T03:17:50;100293.09;;;14.58;100.00
19748;BME280;10032;51.386;12.516;2022-09-03T03:20:15;100298.00;;;14.51;100.00
19748;BME280;10032;51.386;12.516;2022-09-03T03:22:41;100291.16;;;14.43;100.00
19748;BME280;10032;51.386;12.516;2022-09-03T03:25:06;100292.81;;;14.34;100.00
19748;BME280;10032;51.386;12.516;2022-09-03T03:27:33;100296.34;;;14.35;100.00
19748;BME280;10032;51.386;12.516;2022-09-03T03:30:00;100288.97;;;14.30;100.00
19748;BME280;10032;51.386;12.516;2022-09-03T03:32:25;100287.88;;;14.26;100.00
19748;BME280;10032;51.386;12.516;2022-09-03T03:34:50;100292.78;;;14.24;100.00
19748;BME280;10032;51.386;12.516;2022-09-03T03:37:16;100304.16;;;14.16;100.00
19748;BME280;10032;51.386;12.516;2022-09-03T03:39:41;100303.91;;;14.13;100.00
19748;BME280;10032;51.386;12.516;2022-09-03T03:42:06;100310.97;;;14.09;100.00
19748;BME280;10032;51.386;12.516;2022-09-03T03:44:32;100309.88;;;14.05;100.00
19748;BME280;10032;51.386;12.516;2022-09-03T03:46:57;100306.88;;;14.01;100.00
19748;BME280;10032;51.386;12.516;2022-09-03T03:49:22;100307.41;;;14.03;100.00
19748;BME280;10032;51.386;12.516;2022-09-03T03:51:48;100311.78;;;14.09;100.00
19748;BME280;10032;51.386;12.516;2022-09-03T03:54:13;100314.50;;;14.04;100.00
19748;BME280;10032;51.386;12.516;2022-09-03T03:56:38;100311.25;;;14.02;100.00
19748;BME280;10032;51.386;12.516;2022-09-03T03:59:04;100303.31;;;14.01;100.00
19748;BME280;10032;51.386;12.516;2022-09-03T04:01:30;100297.31;;;14.04;100.00
19748;BME280;10032;51.386;12.516;2022-09-03T04:03:56;100291.88;;;14.09;100.00
19748;BME280;10032;51.386;12.516;2022-09-03T04:06:22;100290.50;;;14.06;100.00
19748;BME280;10032;51.386;12.516;2022-09-03T04:08:48;100295.16;;;14.06;100.00
19748;BME280;10032;51.386;12.516;2022-09-03T04:11:16;100291.88;;;14.09;100.00
19748;BME280;10032;51.386;12.516;2022-09-03T04:13:44;100294.91;;;14.12;100.00
19748;BME280;10032;51.386;12.516;2022-09-03T04:16:16;100283.72;;;14.14;100.00
19748;BME280;10032;51.386;12.516;2022-09-03T04:18:42;100289.19;;;14.14;100.00
19748;BME280;10032;51.386;12.516;2022-09-03T04:21:11;100283.44;;;14.10;100.00
19748;BME280;10032;51.386;12.516;2022-09-03T04:23:40;100285.63;;;14.08;100.00
19748;BME280;10032;51.386;12.516;2022-09-03T04:26:06;100281.28;;;14.07;100.00
19748;BME280;10032;51.386;12.516;2022-09-03T04:28:33;100276.91;;;14.06;100.00
19748;BME280;10032;51.386;12.516;2022-09-03T04:31:03;100282.88;;;13.98;100.00
19748;BME280;10032;51.386;12.516;2022-09-03T04:33:31;100280.16;;;13.93;100.00
19748;BME280;10032;51.386;12.516;2022-09-03T04:36:08;100282.84;;;13.88;100.00
19748;BME280;10032;51.386;12.516;2022-09-03T04:38:35;100279.56;;;13.81;100.00
19748;BME280;10032;51.386;12.516;2022-09-03T04:41:01;100281.72;;;13.79;100.00
19748;BME280;10032;51.386;12.516;2022-09-03T04:43:27;100288.25;;;13.78;100.00
19748;BME280;10032;51.386;12.516;2022-09-03T04:46:01;100289.88;;;13.79;100.00
19748;BME280;10032;51.386;12.516;2022-09-03T04:48:28;100293.19;;;13.81;100.00
19748;BME280;10032;51.386;12.516;2022-09-03T04:50:54;100295.91;;;13.81;100.00
19748;BME280;10032;51.386;12.516;2022-09-03T04:53:20;100285.25;;;13.75;100.00
19748;BME280;10032;51.386;12.516;2022-09-03T04:55:46;100296.66;;;13.72;100.00
19748;BME280;10032;51.386;12.516;2022-09-03T04:58:12;100293.94;;;13.72;100.00
19748;BME280;10032;51.386;12.516;2022-09-03T05:00:37;100298.59;;;13.71;100.00
19748;BME280;10032;51.386;12.516;2022-09-03T05:03:03;100304.59;;;13.78;100.00
19748;BME280;10032;51.386;12.516;2022-09-03T05:05:30;100301.56;;;13.70;100.00
19748;BME280;10032;51.386;12.516;2022-09-03T05:07:57;100302.97;;;13.77;100.00
19748;BME280;10032;51.386;12.516;2022-09-03T05:10:22;100305.16;;;13.75;100.00
19748;BME280;10032;51.386;12.516;2022-09-03T05:13:03;100293.94;;;13.72;100.00
19748;BME280;10032;51.386;12.516;2022-09-03T05:15:29;100298.88;;;13.75;100.00
19748;BME280;10032;51.386;12.516;2022-09-03T05:17:59;100300.00;;;13.79;100.00
19748;BME280;10032;51.386;12.516;2022-09-03T05:20:26;100302.19;;;13.87;100.00
19748;BME280;10032;51.386;12.516;2022-09-03T05:22:54;100310.09;;;13.88;100.00
19748;BME280;10032;51.386;12.516;2022-09-03T05:25:19;100307.91;;;13.90;100.00
19748;BME280;10032;51.386;12.516;2022-09-03T05:27:45;100311.19;;;13.92;100.00
19748;BME280;10032;51.386;12.516;2022-09-03T05:30:11;100306.28;;;13.94;100.00
19748;BME280;10032;51.386;12.516;2022-09-03T05:32:37;100308.50;;;14.02;100.00
19748;BME280;10032;51.386;12.516;2022-09-03T05:35:03;100304.16;;;14.01;100.00
19748;BME280;10032;51.386;12.516;2022-09-03T05:37:28;100304.97;;;14.02;100.00
19748;BME280;10032;51.386;12.516;2022-09-03T05:39:53;100313.38;;;14.00;100.00
19748;BME280;10032;51.386;12.516;2022-09-03T05:42:19;100316.13;;;14.00;100.00
19748;BME280;10032;51.386;12.516;2022-09-03T05:44:46;100313.69;;;14.09;100.00
19748;BME280;10032;51.386;12.516;2022-09-03T05:47:12;100314.28;;;14.16;100.00
19748;BME280;10032;51.386;12.516;2022-09-03T05:49:37;100314.00;;;14.17;100.00
19748;BME280;10032;51.386;12.516;2022-09-03T05:52:03;100312.41;;;14.26;100.00
19748;BME280;10032;51.386;12.516;2022-09-03T05:54:29;100309.47;;;14.53;100.00
19748;BME280;10032;51.386;12.516;2022-09-03T05:56:54;100308.66;;;14.77;100.00
19748;BME280;10032;51.386;12.516;2022-09-03T05:59:20;100308.09;;;15.00;100.00
19748;BME280;10032;51.386;12.516;2022-09-03T06:01:45;100300.41;;;15.17;100.00
19748;BME280;10032;51.386;12.516;2022-09-03T06:04:13;100308.56;;;15.47;100.00
19748;BME280;10032;51.386;12.516;2022-09-03T06:06:41;100299.72;;;15.75;100.00
19748;BME280;10032;51.386;12.516;2022-09-03T06:09:09;100306.19;;;15.94;100.00
19748;BME280;10032;51.386;12.516;2022-09-03T06:11:36;100309.16;;;16.03;100.00
19748;BME280;10032;51.386;12.516;2022-09-03T06:14:04;100312.25;;;15.91;100.00
19748;BME280;10032;51.386;12.516;2022-09-03T06:16:31;100307.34;;;15.83;100.00
19748;BME280;10032;51.386;12.516;2022-09-03T06:18:57;100306.84;;;15.76;100.00
19748;BME280;10032;51.386;12.516;2022-09-03T06:21:22;100315.06;;;15.71;100.00
19748;BME280;10032;51.386;12.516;2022-09-03T06:23:49;100312.88;;;15.68;100.00
19748;BME280;10032;51.386;12.516;2022-09-03T06:26:19;100312.84;;;15.73;100.00
19748;BME280;10032;51.386;12.516;2022-09-03T06:28:45;100314.44;;;15.84;100.00
19748;BME280;10032;51.386;12.516;2022-09-03T06:31:15;100312.72;;;16.03;100.00
19748;BME280;10032;51.386;12.516;2022-09-03T06:33:42;100318.09;;;16.23;100.00
19748;BME280;10032;51.386;12.516;2022-09-03T06:36:10;100318.84;;;16.39;100.00
19748;BME280;10032;51.386;12.516;2022-09-03T06:38:37;100310.56;;;16.49;100.00
19748;BME280;10032;51.386;12.516;2022-09-03T06:41:05;100317.50;;;16.75;100.00
19748;BME280;10032;51.386;12.516;2022-09-03T06:43:33;100320.72;;;16.82;100.00
19748;BME280;10032;51.386;12.516;2022-09-03T06:46:10;100316.16;;;17.01;100.00
19748;BME280;10032;51.386;12.516;2022-09-03T06:48:37;100319.63;;;17.11;100.00
19748;BME280;10032;51.386;12.516;2022-09-03T06:51:11;100310.25;;;17.17;100.00
19748;BME280;10032;51.386;12.516;2022-09-03T06:53:38;100315.13;;;17.25;100.00
19748;BME280;10032;51.386;12.516;2022-09-03T06:56:07;100312.88;;;17.27;100.00
19748;BME280;10032;51.386;12.516;2022-09-03T06:58:46;100319.09;;;17.38;100.00
19748;BME280;10032;51.386;12.516;2022-09-03T07:01:18;100318.09;;;17.57;100.00
19748;BME280;10032;51.386;12.516;2022-09-03T07:03:45;100305.28;;;17.76;100.00
19748;BME280;10032;51.386;12.516;2022-09-03T07:06:16;100304.75;;;17.93;100.00
19748;BME280;10032;51.386;12.516;2022-09-03T07:08:43;100311.22;;;18.02;100.00
19748;BME280;10032;51.386;12.516;2022-09-03T07:11:11;100315.91;;;18.20;100.00
19748;BME280;10032;51.386;12.516;2022-09-03T07:13:38;100317.72;;;18.29;100.00
19748;BME280;10032;51.386;12.516;2022-09-03T07:16:07;100312.63;;;18.41;100.00
19748;BME280;10032;51.386;12.516;2022-09-03T07:18:33;100307.00;;;18.51;100.00
19748;BME280;10032;51.386;12.516;2022-09-03T07:21:03;100312.63;;;18.60;100.00
19748;BME280;10032;51.386;12.516;2022-09-03T07:23:30;100304.44;;;18.73;100.00
19748;BME280;10032;51.386;12.516;2022-09-03T07:26:00;100309.25;;;18.81;100.00
19748;BME280;10032;51.386;12.516;2022-09-03T07:28:27;100310.75;;;19.06;100.00
19748;BME280;10032;51.386;12.516;2022-09-03T07:30:54;100310.34;;;19.12;100.00
19748;BME280;10032;51.386;12.516;2022-09-03T07:33:19;100305.97;;;19.11;100.00
19748;BME280;10032;51.386;12.516;2022-09-03T07:35:45;100310.44;;;19.07;100.00
19748;BME280;10032;51.386;12.516;2022-09-03T07:38:16;100299.91;;;19.14;100.00
19748;BME280;10032;51.386;12.516;2022-09-03T07:40:41;100306.88;;;19.39;100.00
19748;BME280;10032;51.386;12.516;2022-09-03T07:43:07;100299.47;;;19.53;100.00
19748;BME280;10032;51.386;12.516;2022-09-03T07:45:33;100296.94;;;19.56;97.06
19748;BME280;10032;51.386;12.516;2022-09-03T07:47:59;100303.75;;;19.45;95.02
19748;BME280;10032;51.386;12.516;2022-09-03T07:50:24;100305.88;;;19.48;96.88
19748;BME280;10032;51.386;12.516;2022-09-03T07:52:55;100301.50;;;19.61;95.93
19748;BME280;10032;51.386;12.516;2022-09-03T07:55:22;100300.56;;;19.79;96.14
19748;BME280;10032;51.386;12.516;2022-09-03T07:57:48;100295.06;;;19.92;95.72
19748;BME280;10032;51.386;12.516;2022-09-03T08:00:13;100308.53;;;19.94;92.59
19748;BME280;10032;51.386;12.516;2022-09-03T08:02:39;100301.59;;;19.96;91.33
19748;BME280;10032;51.386;12.516;2022-09-03T08:05:05;100303.34;;;20.06;92.08
19748;BME280;10032;51.386;12.516;2022-09-03T08:07:31;100307.63;;;20.12;90.11
19748;BME280;10032;51.386;12.516;2022-09-03T08:09:56;100310.34;;;20.25;91.17
19748;BME280;10032;51.386;12.516;2022-09-03T08:12:22;100304.19;;;20.42;90.67
19748;BME280;10032;51.386;12.516;2022-09-03T08:14:48;100309.25;;;20.48;89.07
19748;BME280;10032;51.386;12.516;2022-09-03T08:17:13;100311.00;;;20.44;86.46
19748;BME280;10032;51.386;12.516;2022-09-03T08:19:39;100319.72;;;20.38;84.96
19748;BME280;10032;51.386;12.516;2022-09-03T08:22:06;100306.63;;;20.43;84.16
19748;BME280;10032;51.386;12.516;2022-09-03T08:24:32;100309.97;;;20.54;84.77
19748;BME280;10032;51.386;12.516;2022-09-03T08:26:58;100302.28;;;20.64;83.42
19748;BME280;10032;51.386;12.516;2022-09-03T08:29:25;100302.91;;;20.83;83.15
19748;BME280;10032;51.386;12.516;2022-09-03T08:31:51;100295.63;;;20.87;82.91
19748;BME280;10032;51.386;12.516;2022-09-03T08:34:16;100288.28;;;20.96;82.78
19748;BME280;10032;51.386;12.516;2022-09-03T08:36:42;100295.75;;;20.96;80.73
19748;BME280;10032;51.386;12.516;2022-09-03T08:39:09;100294.00;;;21.08;80.39
19748;BME280;10032;51.386;12.516;2022-09-03T08:44:19;100291.38;;;21.25;79.25
19748;BME280;10032;51.386;12.516;2022-09-03T08:52:49;100292.34;;;21.29;76.82
19748;BME280;10032;51.386;12.516;2022-09-03T08:58:12;100289.28;;;21.61;73.95
19748;BME280;10032;51.386;12.516;2022-09-03T09:00:58;100291.00;;;21.49;73.47
19748;BME280;10032;51.386;12.516;2022-09-03T09:06:28;100287.13;;;21.89;73.00
19748;BME280;10032;51.386;12.516;2022-09-03T09:15:03;100285.22;;;22.23;69.94
19748;BME280;10032;51.386;12.516;2022-09-03T09:22:45;100267.72;;;22.70;69.27
19748;BME280;10032;51.386;12.516;2022-09-03T09:25:17;100265.44;;;22.64;68.50
19748;BME280;10032;51.386;12.516;2022-09-03T09:27:50;100257.94;;;22.90;68.60
19748;BME280;10032;51.386;12.516;2022-09-03T09:30:17;100258.06;;;23.10;69.20
19748;BME280;10032;51.386;12.516;2022-09-03T09:32:42;100256.94;;;23.11;65.82
19748;BME280;10032;51.386;12.516;2022-09-03T09:35:09;100255.16;;;23.07;64.28
19748;BME280;10032;51.386;12.516;2022-09-03T09:37:49;100243.72;;;23.17;64.68
19748;BME280;10032;51.386;12.516;2022-09-03T09:40:31;100253.00;;;23.29;64.32
19748;BME280;10032;51.386;12.516;2022-09-03T09:43:10;100241.88;;;23.46;62.82
19748;BME280;10032;51.386;12.516;2022-09-03T09:45:40;100246.72;;;23.49;60.94
19748;BME280;10032;51.386;12.516;2022-09-03T09:50:41;100245.72;;;23.54;59.87
19748;BME280;10032;51.386;12.516;2022-09-03T09:53:08;100244.38;;;23.68;58.11
19748;BME280;10032;51.386;12.516;2022-09-03T09:55:55;100248.56;;;23.74;56.79
19748;BME280;10032;51.386;12.516;2022-09-03T09:58:24;100243.63;;;23.88;56.01
19748;BME280;10032;51.386;12.516;2022-09-03T10:03:57;100234.66;;;23.83;50.66
19748;BME280;10032;51.386;12.516;2022-09-03T10:06:27;100233.38;;;24.09;53.74
19748;BME280;10032;51.386;12.516;2022-09-03T10:09:18;100230.47;;;24.06;53.38
19748;BME280;10032;51.386;12.516;2022-09-03T10:11:49;100233.19;;;24.35;53.36
19748;BME280;10032;51.386;12.516;2022-09-03T10:14:27;100227.28;;;24.57;51.37
19748;BME280;10032;51.386;12.516;2022-09-03T10:17:13;100231.19;;;24.76;52.12
19748;BME280;10032;51.386;12.516;2022-09-03T10:22:55;100226.91;;;24.67;50.81
19748;BME280;10032;51.386;12.516;2022-09-03T10:25:25;100225.09;;;24.83;50.74
19748;BME280;10032;51.386;12.516;2022-09-03T10:27:51;100224.59;;;25.13;49.64
19748;BME280;10032;51.386;12.516;2022-09-03T10:30:18;100229.69;;;25.23;49.23
19748;BME280;10032;51.386;12.516;2022-09-03T10:32:59;100216.75;;;25.15;46.99
19748;BME280;10032;51.386;12.516;2022-09-03T10:35:51;100210.50;;;25.18;48.99
19748;BME280;10032;51.386;12.516;2022-09-03T11:18:35;100190.03;;;25.23;43.81
19748;BME280;10032;51.386;12.516;2022-09-03T11:21:04;100183.97;;;25.29;43.21
19748;BME280;10032;51.386;12.516;2022-09-03T11:23:38;100190.66;;;25.40;43.76
19748;BME280;10032;51.386;12.516;2022-09-03T11:26:08;100183.97;;;25.53;43.56
19748;BME280;10032;51.386;12.516;2022-09-03T11:32:14;100178.19;;;25.70;42.57
19748;BME280;10032;51.386;12.516;2022-09-03T11:34:26;100179.06;;;25.98;42.80
19748;BME280;10032;51.386;12.516;2022-09-03T11:37:04;100170.72;;;26.10;42.44
19748;BME280;10032;51.386;12.516;2022-09-03T11:42:00;100178.66;;;26.24;41.98
19748;BME280;10032;51.386;12.516;2022-09-03T11:44:36;100172.69;;;26.10;41.39
19748;BME280;10032;51.386;12.516;2022-09-03T11:47:14;100175.47;;;26.10;41.33
19748;BME280;10032;51.386;12.516;2022-09-03T11:49:45;100174.88;;;26.16;40.83
19748;BME280;10032;51.386;12.516;2022-09-03T11:52:11;100169.59;;;26.27;41.11
19748;BME280;10032;51.386;12.516;2022-09-03T11:54:44;100170.94;;;26.45;40.32
19748;BME280;10032;51.386;12.516;2022-09-03T11:57:11;100172.56;;;26.73;40.20
19748;BME280;10032;51.386;12.516;2022-09-03T11:59:39;100163.59;;;26.80;40.29
19748;BME280;10032;51.386;12.516;2022-09-03T12:10:33;100157.25;;;26.95;39.31
19748;BME280;10032;51.386;12.516;2022-09-03T12:18:48;100140.19;;;26.96;38.83
19748;BME280;10032;51.386;12.516;2022-09-03T12:21:17;100151.75;;;26.98;38.75
19748;BME280;10032;51.386;12.516;2022-09-03T12:23:48;100139.72;;;26.94;37.60
19748;BME280;10032;51.386;12.516;2022-09-03T12:26:22;100138.75;;;27.02;38.21
19748;BME280;10032;51.386;12.516;2022-09-03T12:28:58;100127.44;;;27.11;38.00
19748;BME280;10032;51.386;12.516;2022-09-03T12:31:26;100138.22;;;27.28;37.87
19748;BME280;10032;51.386;12.516;2022-09-03T12:33:59;100131.34;;;27.37;37.74
19748;BME280;10032;51.386;12.516;2022-09-03T12:36:26;100119.78;;;27.54;37.29
19748;BME280;10032;51.386;12.516;2022-09-03T12:39:16;100126.06;;;27.51;37.63
19748;BME280;10032;51.386;12.516;2022-09-03T12:41:53;100129.97;;;27.47;36.73
19748;BME280;10032;51.386;12.516;2022-09-03T12:44:30;100109.34;;;27.32;36.86
19748;BME280;10032;51.386;12.516;2022-09-03T12:47:03;100114.50;;;27.49;37.05
19748;BME280;10032;51.386;12.516;2022-09-03T12:49:37;100102.75;;;27.75;37.26
19748;BME280;10032;51.386;12.516;2022-09-03T12:52:15;100105.34;;;27.83;36.75
19748;BME280;10032;51.386;12.516;2022-09-03T12:54:50;100110.06;;;27.79;36.25
19748;BME280;10032;51.386;12.516;2022-09-03T12:57:21;100105.88;;;27.39;35.96
19748;BME280;10032;51.386;12.516;2022-09-03T12:59:50;100099.56;;;27.57;36.68
19748;BME280;10032;51.386;12.516;2022-09-03T13:02:25;100091.09;;;27.69;36.40
19748;BME280;10032;51.386;12.516;2022-09-03T13:04:52;100088.34;;;27.88;36.79
19748;BME280;10032;51.386;12.516;2022-09-03T13:07:28;100085.00;;;27.79;36.25
19748;BME280;10032;51.386;12.516;2022-09-03T13:10:02;100086.19;;;27.63;35.66
19748;BME280;10032;51.386;12.516;2022-09-03T13:12:42;100088.75;;;27.71;36.54
19748;BME280;10032;51.386;12.516;2022-09-03T13:15:18;100081.44;;;27.63;35.98
19748;BME280;10032;51.386;12.516;2022-09-03T13:18:15;100089.53;;;27.87;36.53
19748;BME280;10032;51.386;12.516;2022-09-03T13:23:56;100091.06;;;27.50;35.17
19748;BME280;10032;51.386;12.516;2022-09-03T13:26:59;100089.09;;;27.70;35.67
19748;BME280;10032;51.386;12.516;2022-09-03T13:32:37;100089.53;;;27.87;35.27
19748;BME280;10032;51.386;12.516;2022-09-03T13:35:35;100088.63;;;27.83;35.44
19748;BME280;10032;51.386;12.516;2022-09-03T13:38:19;100078.25;;;27.80;35.03
19748;BME280;10032;51.386;12.516;2022-09-03T13:41:08;100075.59;;;27.87;35.76
19748;BME280;10032;51.386;12.516;2022-09-03T13:44:09;100075.22;;;27.89;34.45
19748;BME280;10032;51.386;12.516;2022-09-03T13:46:56;100067.66;;;27.70;34.76
19748;BME280;10032;51.386;12.516;2022-09-03T13:49:53;100061.84;;;27.25;34.04
19748;BME280;10032;51.386;12.516;2022-09-03T13:55:36;100066.69;;;27.28;35.18
19748;BME280;10032;51.386;12.516;2022-09-03T14:01:25;100065.22;;;27.69;34.77
19748;BME280;10032;51.386;12.516;2022-09-03T14:04:00;100065.22;;;27.69;34.96
19748;BME280;10032;51.386;12.516;2022-09-03T14:06:36;100067.03;;;27.61;35.05
19748;BME280;10032;51.386;12.516;2022-09-03T14:09:32;100070.53;;;27.39;35.06
19748;BME280;10032;51.386;12.516;2022-09-03T14:14:57;100057.59;;;27.31;35.18
19748;BME280;10032;51.386;12.516;2022-09-03T14:17:39;100049.84;;;27.21;35.11
19748;BME280;10032;51.386;12.516;2022-09-03T14:20:22;100047.56;;;27.27;35.03
19748;BME280;10032;51.386;12.516;2022-09-03T14:25:23;100050.41;;;27.46;35.75
19748;BME280;10032;51.386;12.516;2022-09-03T14:27:50;100067.59;;;27.51;35.62
19748;BME280;10032;51.386;12.516;2022-09-03T14:30:19;100062.09;;;27.55;35.70
19748;BME280;10032;51.386;12.516;2022-09-03T14:35:37;100062.50;;;27.53;35.64
19748;BME280;10032;51.386;12.516;2022-09-03T14:38:49;100052.66;;;27.40;35.53
19748;BME280;10032;51.386;12.516;2022-09-03T14:44:03;100050.63;;;27.22;35.74
19748;BME280;10032;51.386;12.516;2022-09-03T14:49:45;100054.72;;;27.43;35.84
19748;BME280;10032;51.386;12.516;2022-09-03T14:52:27;100049.84;;;27.40;35.86
19748;BME280;10032;51.386;12.516;2022-09-03T15:00:17;100062.75;;;26.98;37.44
19748;BME280;10032;51.386;12.516;2022-09-03T15:11:23;100048.25;;;26.58;37.04
19748;BME280;10032;51.386;12.516;2022-09-03T15:13:53;100058.19;;;26.59;37.34
19748;BME280;10032;51.386;12.516;2022-09-03T15:16:45;100056.41;;;26.39;37.16
19748;BME280;10032;51.386;12.516;2022-09-03T15:25:03;100046.66;;;26.02;37.93
19748;BME280;10032;51.386;12.516;2022-09-03T15:30:17;100066.19;;;25.66;38.00
19748;BME280;10032;51.386;12.516;2022-09-03T15:37:58;100065.78;;;25.52;39.08
19748;BME280;10032;51.386;12.516;2022-09-03T15:40:33;100055.59;;;25.56;39.30
19748;BME280;10032;51.386;12.516;2022-09-03T15:43:09;100056.88;;;25.47;39.14
19748;BME280;10032;51.386;12.516;2022-09-03T15:53:38;100041.78;;;25.20;40.29
19748;BME280;10032;51.386;12.516;2022-09-03T15:58:51;100054.00;;;25.43;40.64
19748;BME280;10032;51.386;12.516;2022-09-03T16:01:43;100054.22;;;25.50;40.71
19748;BME280;10032;51.386;12.516;2022-09-03T16:12:30;100051.44;;;25.50;41.10
19748;BME280;10032;51.386;12.516;2022-09-03T16:17:38;100059.81;;;25.38;41.00
19748;BME280;10032;51.386;12.516;2022-09-03T16:20:19;100064.03;;;25.48;40.98
19748;BME280;10032;51.386;12.516;2022-09-03T16:23:21;100059.31;;;25.48;40.59
19748;BME280;10032;51.386;12.516;2022-09-03T16:25:56;100056.78;;;25.43;40.94
19748;BME280;10032;51.386;12.516;2022-09-03T16:28:34;100059.44;;;25.52;41.22